Randolph, Texas
Current Conditions -  °F | °C
As of 11:53 AM on Wednesday 26 Nov 2014 (Local Time) from KTKI Reporting Station
Clear Clear  
Wind Chill: 61°   Ceiling: Unl
Heat Index: 61°   Visibility: 10mi
Dew Point: 31°   Wind: 14mph
Humidity: 32%   Direction: 350°N
Pressure: 30.16"   Gusts: NA
Location:  33.49°N, 96.25°W
Report Text: KTKI 261753Z 35012KT 10SM CLR 16/M01 A3016 RMK AO2 SLP221 T01611006 10161 20011 51021
Loading
Personal Weather Stations






























Interactive Weather Map New forecast layout! Learn more

10-Day Weather Forecast

Advertisements
Track Severe Weather on mobile